createdAt,value
2023-02-08T00:00:24.163Z,26.50
2023-02-08T00:00:54.273Z,26.57
2023-02-08T00:01:24.277Z,26.55
2023-02-08T00:01:54.404Z,26.50
2023-02-08T00:02:24.437Z,26.56
2023-02-08T00:02:54.473Z,26.55
2023-02-08T00:03:24.483Z,26.50
2023-02-08T00:03:54.503Z,26.55
2023-02-08T00:04:24.494Z,26.47
2023-02-08T00:04:54.578Z,26.53
2023-02-08T00:05:24.676Z,26.53
2023-02-08T00:05:54.739Z,26.47
2023-02-08T00:06:24.816Z,26.47
2023-02-08T00:06:54.892Z,26.56
2023-02-08T00:07:24.974Z,26.48
2023-02-08T00:07:55.054Z,26.47
2023-02-08T00:08:25.155Z,26.50
2023-02-08T00:08:55.248Z,26.50
2023-02-08T00:09:25.317Z,26.53
2023-02-08T00:09:55.412Z,26.46
2023-02-08T00:10:25.475Z,26.55
2023-02-08T00:10:55.567Z,26.47
2023-02-08T00:11:25.648Z,26.43
2023-02-08T00:11:55.727Z,26.52
2023-02-08T00:12:25.812Z,26.56
2023-02-08T00:12:55.885Z,26.56
2023-02-08T00:13:26.026Z,26.60
2023-02-08T00:13:55.979Z,26.53
2023-02-08T00:14:26.096Z,26.61
2023-02-08T00:14:56.081Z,26.53
2023-02-08T00:15:26.096Z,26.53
2023-02-08T00:15:56.249Z,26.55
2023-02-08T00:16:26.234Z,26.55
2023-02-08T00:16:56.350Z,26.55
2023-02-08T00:17:26.476Z,26.47
2023-02-08T00:17:56.457Z,26.49
2023-02-08T00:18:26.627Z,26.53
2023-02-08T00:18:56.614Z,26.55
2023-02-08T00:19:26.728Z,26.49
2023-02-08T00:19:56.722Z,26.50
2023-02-08T00:20:26.841Z,26.53
2023-02-08T00:20:56.836Z,26.58
2023-02-08T00:21:26.838Z,26.52
2023-02-08T00:21:56.970Z,26.52
2023-02-08T00:22:27.072Z,26.53
2023-02-08T00:22:57.061Z,26.53
2023-02-08T00:23:27.221Z,26.58
2023-02-08T00:23:57.205Z,26.55
2023-02-08T00:24:27.320Z,26.52
2023-02-08T00:24:57.318Z,26.52
2023-02-08T00:25:27.436Z,26.52
2023-02-08T00:25:57.552Z,26.56
2023-02-08T00:26:27.548Z,26.52
2023-02-08T00:26:57.662Z,26.47
2023-02-08T00:27:27.779Z,26.55
2023-02-08T00:27:57.795Z,26.55
2023-02-08T00:28:27.832Z,26.55
2023-02-08T00:28:57.830Z,26.49
2023-02-08T00:29:27.829Z,26.52
2023-02-08T00:29:57.946Z,26.52
2023-02-08T00:30:28.067Z,26.44
2023-02-08T00:30:58.280Z,26.52
2023-02-08T00:31:28.344Z,26.49
2023-02-08T00:31:58.244Z,26.46
2023-02-08T00:32:28.344Z,26.44
2023-02-08T00:32:58.458Z,26.47
2023-02-08T00:33:28.582Z,26.41
2023-02-08T00:33:58.594Z,26.44
2023-02-08T00:34:28.695Z,26.42
2023-02-08T00:34:58.681Z,26.43
2023-02-08T00:35:28.802Z,26.36
2023-02-08T00:35:58.789Z,26.42
2023-02-08T00:36:28.909Z,26.44
2023-02-08T00:36:59.028Z,26.38
2023-02-08T00:37:29.154Z,26.44
2023-02-08T00:37:59.149Z,26.46
2023-02-08T00:38:29.155Z,26.42
2023-02-08T00:38:59.141Z,26.47
2023-02-08T00:39:29.138Z,26.44
2023-02-08T00:39:59.247Z,26.38
2023-02-08T00:40:29.370Z,26.46
2023-02-08T00:40:59.480Z,26.39
2023-02-08T00:41:29.479Z,26.41
2023-02-08T00:41:59.473Z,26.44
2023-02-08T00:42:29.589Z,26.36
2023-02-08T00:42:59.585Z,26.39
2023-02-08T00:43:29.706Z,26.42
2023-02-08T00:43:59.701Z,26.39
2023-02-08T00:44:29.809Z,26.44
2023-02-08T00:44:59.932Z,26.45
2023-02-08T00:45:30.048Z,26.39
2023-02-08T00:46:00.205Z,26.44
2023-02-08T00:46:30.259Z,26.42
2023-02-08T00:47:00.220Z,26.41
2023-02-08T00:47:30.343Z,26.42
2023-02-08T00:48:00.449Z,26.42
2023-02-08T00:48:30.571Z,26.39
2023-02-08T00:49:00.584Z,26.30
2023-02-08T00:49:30.685Z,26.41
2023-02-08T00:50:00.798Z,26.27
2023-02-08T00:50:30.921Z,26.34
2023-02-08T00:51:00.910Z,26.27
2023-02-08T00:51:31.049Z,26.29
2023-02-08T00:52:01.144Z,26.33
2023-02-08T00:52:31.140Z,26.30
2023-02-08T00:53:01.257Z,26.35
2023-02-08T00:53:31.377Z,26.29
2023-02-08T00:54:01.376Z,26.32
2023-02-08T00:54:31.489Z,26.30
2023-02-08T00:55:01.603Z,26.25
2023-02-08T00:55:31.722Z,26.27
2023-02-08T00:56:01.717Z,26.30
2023-02-08T00:56:31.842Z,26.32
2023-02-08T00:57:01.826Z,26.36
2023-02-08T00:57:31.944Z,26.32
2023-02-08T00:58:02.064Z,26.32
2023-02-08T00:58:32.177Z,26.22
2023-02-08T00:59:02.292Z,26.32
2023-02-08T00:59:32.295Z,26.27
2023-02-08T01:00:02.449Z,26.30
2023-02-08T01:00:32.486Z,26.29
2023-02-08T01:01:02.585Z,26.27
2023-02-08T01:01:32.564Z,26.24
2023-02-08T01:02:02.657Z,26.25
2023-02-08T01:02:32.636Z,26.22
2023-02-08T01:03:02.628Z,26.24
2023-02-08T01:03:32.750Z,26.18
2023-02-08T01:04:02.772Z,26.28
2023-02-08T01:04:32.846Z,26.25
2023-02-08T01:05:41.802Z,26.28
2023-02-08T01:06:11.877Z,26.30
2023-02-08T01:06:41.956Z,26.27
2023-02-08T01:07:12.038Z,26.24
2023-02-08T01:07:42.119Z,26.24
2023-02-08T01:08:12.195Z,26.22
2023-02-08T01:08:42.301Z,26.28
2023-02-08T01:09:12.372Z,26.35
2023-02-08T01:09:42.449Z,26.31
2023-02-08T01:10:12.629Z,26.33
2023-02-08T01:10:42.736Z,26.26
2023-02-08T01:11:12.665Z,26.26
2023-02-08T01:11:42.748Z,26.37
2023-02-08T01:12:12.830Z,26.38
2023-02-08T01:12:42.908Z,26.28
2023-02-08T01:13:12.988Z,26.31
2023-02-08T01:13:43.069Z,26.35
2023-02-08T01:14:13.160Z,26.31
2023-02-08T01:14:43.247Z,26.39
2023-02-08T01:15:13.320Z,26.34
2023-02-08T01:15:43.439Z,26.30
2023-02-08T01:16:13.627Z,26.31
2023-02-08T01:16:43.609Z,26.34
2023-02-08T01:17:13.601Z,26.39
2023-02-08T01:17:43.721Z,26.33
2023-02-08T01:18:13.850Z,26.43
2023-02-08T01:18:43.851Z,26.33
2023-02-08T01:19:13.986Z,26.34
2023-02-08T01:19:44.030Z,26.30
2023-02-08T01:20:14.158Z,26.33
2023-02-08T01:20:44.263Z,26.30
2023-02-08T01:21:14.379Z,26.33
2023-02-08T01:21:44.382Z,26.39
2023-02-08T01:22:14.498Z,26.28
2023-02-08T01:22:44.626Z,26.34
2023-02-08T01:23:14.612Z,26.30
2023-02-08T01:23:44.610Z,26.33
2023-02-08T01:24:14.626Z,26.28
2023-02-08T01:24:44.604Z,26.22
2023-02-08T01:25:14.718Z,26.28
2023-02-08T01:25:44.840Z,26.33
2023-02-08T01:26:14.959Z,26.33
2023-02-08T01:26:45.066Z,26.33
2023-02-08T01:27:15.061Z,26.33
2023-02-08T01:27:45.057Z,26.35
2023-02-08T01:28:15.318Z,26.35
2023-02-08T01:28:45.202Z,26.37
2023-02-08T01:29:15.190Z,26.34
2023-02-08T01:29:45.184Z,26.35
2023-02-08T01:30:15.181Z,26.35
2023-02-08T01:30:45.320Z,26.37
2023-02-08T01:31:15.468Z,26.29
2023-02-08T01:31:45.645Z,26.35
2023-02-08T01:32:15.621Z,26.34
2023-02-08T01:32:45.613Z,26.29
2023-02-08T01:33:15.616Z,26.28
2023-02-08T01:33:45.724Z,26.31
2023-02-08T01:34:15.861Z,26.31
2023-02-08T01:34:45.960Z,26.34
2023-02-08T01:35:15.961Z,26.29
2023-02-08T01:35:45.946Z,26.37
2023-02-08T01:36:16.062Z,26.34
2023-02-08T01:36:46.172Z,26.38
2023-02-08T01:37:16.303Z,26.31
2023-02-08T01:37:46.310Z,26.37
2023-02-08T01:38:16.407Z,26.33
2023-02-08T01:38:46.399Z,26.35
2023-02-08T01:39:16.524Z,26.41
2023-02-08T01:39:46.507Z,26.34
2023-02-08T01:40:16.510Z,26.34
2023-02-08T01:40:46.620Z,26.37
2023-02-08T01:41:16.734Z,26.34
2023-02-08T01:41:46.844Z,26.32
2023-02-08T01:42:16.822Z,26.35
2023-02-08T01:42:46.812Z,26.32
2023-02-08T01:43:16.930Z,26.31
2023-02-08T01:43:47.044Z,26.28
2023-02-08T01:44:17.041Z,26.31
2023-02-08T01:44:47.155Z,26.31
2023-02-08T01:45:17.269Z,26.31
2023-02-08T01:45:47.305Z,26.32
2023-02-08T01:46:17.284Z,26.34
2023-02-08T01:46:47.431Z,26.31
2023-02-08T01:47:17.408Z,26.32
2023-02-08T01:47:47.513Z,26.31
2023-02-08T01:48:17.630Z,26.32
2023-02-08T01:48:47.630Z,26.32
2023-02-08T01:49:17.697Z,26.29
2023-02-08T01:49:47.665Z,26.31
2023-02-08T01:50:17.783Z,26.35
2023-02-08T01:50:47.894Z,26.30
2023-02-08T01:51:18.012Z,26.35
2023-02-08T01:51:48.012Z,26.31
2023-02-08T01:52:18.157Z,26.26
2023-02-08T01:52:48.138Z,26.29
2023-02-08T01:53:18.261Z,26.35
2023-02-08T01:53:48.379Z,26.36
2023-02-08T01:54:18.372Z,26.41
2023-02-08T01:54:48.368Z,26.40
2023-02-08T01:55:18.483Z,26.35
2023-02-08T01:55:48.603Z,26.33
2023-02-08T01:56:18.718Z,26.32
2023-02-08T01:56:48.833Z,26.32
2023-02-08T01:57:18.984Z,26.32
2023-02-08T01:57:48.946Z,26.35
2023-02-08T01:58:18.944Z,26.33
2023-02-08T01:58:48.936Z,26.30
2023-02-08T01:59:19.057Z,26.33
2023-02-08T01:59:49.172Z,26.29
2023-02-08T02:00:19.164Z,26.26
2023-02-08T02:00:49.323Z,26.24
2023-02-08T02:01:19.343Z,26.30
2023-02-08T02:01:49.328Z,26.24
2023-02-08T02:02:19.440Z,26.29
2023-02-08T02:02:49.429Z,26.30
2023-02-08T02:03:19.550Z,26.30
2023-02-08T02:03:49.551Z,26.29
2023-02-08T02:04:19.587Z,26.24
2023-02-08T02:04:49.580Z,26.29
2023-02-08T02:05:19.657Z,26.32
2023-02-08T02:05:49.743Z,26.30
2023-02-08T02:06:19.818Z,26.32
2023-02-08T02:06:49.896Z,26.35
2023-02-08T02:07:20.003Z,26.32
2023-02-08T02:07:50.063Z,26.35
2023-02-08T02:08:20.145Z,26.27
2023-02-08T02:08:50.220Z,26.26
2023-02-08T02:09:20.295Z,26.29
2023-02-08T02:09:50.374Z,26.26
2023-02-08T02:10:20.455Z,26.33
2023-02-08T02:10:50.538Z,26.33
2023-02-08T02:11:20.611Z,26.29
2023-02-08T02:11:50.690Z,26.35
2023-02-08T02:12:20.785Z,26.30
2023-02-08T02:12:50.857Z,26.35
2023-02-08T02:13:20.957Z,26.39
2023-02-08T02:13:51.013Z,26.33
2023-02-08T02:14:21.092Z,26.27
2023-02-08T02:14:51.177Z,26.32
2023-02-08T02:15:21.265Z,26.29
2023-02-08T02:15:51.263Z,26.33
2023-02-08T02:16:21.280Z,26.30
2023-02-08T02:16:51.315Z,26.30
2023-02-08T02:17:21.299Z,26.32
2023-02-08T02:17:51.277Z,26.30
2023-02-08T02:18:21.388Z,26.32
2023-02-08T02:18:51.389Z,26.35
2023-02-08T02:19:21.381Z,26.35
2023-02-08T02:19:51.499Z,26.30
2023-02-08T02:20:21.513Z,26.35
2023-02-08T02:20:51.608Z,26.32
2023-02-08T02:21:21.727Z,26.32
2023-02-08T02:21:51.719Z,26.25
2023-02-08T02:22:21.742Z,26.30
2023-02-08T02:22:51.840Z,26.33
2023-02-08T02:23:21.737Z,26.36
2023-02-08T02:23:51.726Z,26.34
2023-02-08T02:24:21.727Z,26.32
2023-02-08T02:24:51.720Z,26.36
2023-02-08T02:25:21.841Z,26.32
2023-02-08T02:25:51.833Z,26.29
2023-02-08T02:26:21.827Z,26.30
2023-02-08T02:26:51.941Z,26.32
2023-02-08T02:27:21.941Z,26.33
2023-02-08T02:27:52.083Z,26.36
2023-02-08T02:28:22.115Z,26.33
2023-02-08T02:28:52.083Z,26.30
2023-02-08T02:29:22.196Z,26.30
2023-02-08T02:29:52.315Z,26.30
2023-02-08T02:30:22.314Z,26.30
2023-02-08T02:30:52.457Z,26.31
2023-02-08T02:31:22.478Z,26.27
2023-02-08T02:31:52.495Z,26.24
2023-02-08T02:32:22.486Z,26.28
2023-02-08T02:32:52.497Z,26.30
2023-02-08T02:33:22.485Z,26.36
2023-02-08T02:33:52.605Z,26.33
2023-02-08T02:34:22.601Z,26.32
2023-02-08T02:34:52.717Z,26.34
2023-02-08T02:35:22.706Z,26.28
2023-02-08T02:35:52.848Z,26.31
2023-02-08T02:36:22.938Z,26.28
2023-02-08T02:36:52.937Z,26.28
2023-02-08T02:37:22.929Z,26.28
2023-02-08T02:37:53.051Z,26.21
2023-02-08T02:38:23.165Z,26.22
2023-02-08T02:38:53.287Z,26.25
2023-02-08T02:39:23.282Z,26.25
2023-02-08T02:39:53.269Z,26.24
2023-02-08T02:40:23.276Z,26.22
2023-02-08T02:40:53.379Z,26.24
2023-02-08T02:41:23.390Z,26.25
2023-02-08T02:41:53.512Z,26.25
2023-02-08T02:42:23.617Z,26.19
2023-02-08T02:42:53.619Z,26.24
2023-02-08T02:43:23.731Z,26.24
2023-02-08T02:43:53.851Z,26.30
2023-02-08T02:44:23.844Z,26.22
2023-02-08T02:44:53.964Z,26.27
2023-02-08T02:45:24.086Z,26.19
2023-02-08T02:45:54.280Z,26.21
2023-02-08T02:46:24.285Z,26.17
2023-02-08T02:46:54.403Z,26.22
2023-02-08T02:47:24.384Z,26.28
2023-02-08T02:47:54.517Z,26.23
2023-02-08T02:48:24.511Z,26.25
2023-02-08T02:48:54.510Z,26.25
2023-02-08T02:49:24.621Z,26.24
2023-02-08T02:49:54.739Z,26.22
2023-02-08T02:50:24.731Z,26.30
2023-02-08T02:50:54.857Z,26.22
2023-02-08T02:51:24.992Z,26.25
2023-02-08T02:51:55.086Z,26.30
2023-02-08T02:52:25.205Z,26.27
2023-02-08T02:52:55.319Z,26.16
2023-02-08T02:53:25.312Z,26.16
2023-02-08T02:53:55.450Z,26.22
2023-02-08T02:54:25.549Z,26.20
2023-02-08T02:54:55.668Z,26.20
2023-02-08T02:55:25.673Z,26.20
2023-02-08T02:55:55.790Z,26.24
2023-02-08T02:56:25.905Z,26.25
2023-02-08T02:56:56.019Z,26.22
2023-02-08T02:57:26.136Z,26.25
2023-02-08T02:57:56.254Z,26.22
2023-02-08T02:58:26.365Z,26.30
2023-02-08T02:58:56.377Z,26.27
2023-02-08T02:59:26.481Z,26.25
2023-02-08T02:59:56.593Z,26.14
2023-02-08T03:00:26.706Z,26.20
2023-02-08T03:00:56.860Z,26.26
2023-02-08T03:01:26.869Z,26.23
2023-02-08T03:01:56.839Z,26.23
2023-02-08T03:02:26.963Z,26.25
2023-02-08T03:02:57.078Z,26.20
2023-02-08T03:03:27.196Z,26.23
2023-02-08T03:03:57.362Z,26.17
2023-02-08T03:04:27.419Z,26.23
2023-02-08T03:04:57.424Z,26.33
2023-02-08T03:05:27.495Z,26.23
2023-02-08T03:05:57.571Z,26.26
2023-02-08T03:06:27.681Z,26.23
2023-02-08T03:06:57.751Z,26.25
2023-02-08T03:07:27.811Z,26.22
2023-02-08T03:07:57.893Z,26.23
2023-02-08T03:08:27.975Z,26.22
2023-02-08T03:08:58.053Z,26.25
2023-02-08T03:09:28.140Z,26.22
2023-02-08T03:09:58.228Z,26.26
2023-02-08T03:10:28.295Z,26.16
2023-02-08T03:10:58.399Z,26.22
2023-02-08T03:11:28.457Z,26.23
2023-02-08T03:11:58.535Z,26.20
2023-02-08T03:12:28.623Z,26.25
2023-02-08T03:12:58.706Z,26.26
2023-02-08T03:13:28.786Z,26.19
2023-02-08T03:13:58.854Z,26.25
2023-02-08T03:14:28.934Z,26.16
2023-02-08T03:14:59.023Z,26.11
2023-02-08T03:15:29.120Z,26.16
2023-02-08T03:15:59.114Z,26.17
2023-02-08T03:16:29.299Z,26.17
2023-02-08T03:16:59.397Z,26.19
2023-02-08T03:17:29.362Z,26.20
2023-02-08T03:17:59.366Z,26.17
2023-02-08T03:18:29.357Z,26.09
2023-02-08T03:18:59.478Z,26.14
2023-02-08T03:19:29.470Z,26.12
2023-02-08T03:19:59.591Z,26.14
2023-02-08T03:20:29.586Z,26.18
2023-02-08T03:20:59.584Z,26.22
2023-02-08T03:21:29.600Z,26.17
2023-02-08T03:21:59.714Z,26.20
2023-02-08T03:22:29.803Z,26.19
2023-02-08T03:22:59.796Z,26.13
2023-02-08T03:23:29.791Z,26.16
2023-02-08T03:23:59.916Z,26.11
2023-02-08T03:24:29.908Z,26.17
2023-02-08T03:25:00.026Z,26.16
2023-02-08T03:25:30.146Z,26.23
2023-02-08T03:26:00.254Z,26.14
2023-02-08T03:26:30.370Z,26.12
2023-02-08T03:27:00.502Z,26.12
2023-02-08T03:27:30.604Z,26.11
2023-02-08T03:28:00.743Z,26.19
2023-02-08T03:28:30.762Z,26.16
2023-02-08T03:29:00.780Z,26.19
2023-02-08T03:29:30.905Z,26.17
2023-02-08T03:30:01.019Z,26.21
2023-02-08T03:30:31.024Z,26.17
2023-02-08T03:31:01.210Z,26.20
2023-02-08T03:31:31.447Z,26.20
2023-02-08T03:32:01.377Z,26.12
2023-02-08T03:32:31.344Z,26.20
2023-02-08T03:33:01.467Z,26.20
2023-02-08T03:33:31.580Z,26.18
2023-02-08T03:34:01.578Z,26.14
2023-02-08T03:34:31.573Z,26.17
2023-02-08T03:35:01.691Z,26.18
2023-02-08T03:35:31.682Z,26.17
2023-02-08T03:36:01.801Z,26.15
2023-02-08T03:36:31.919Z,26.12
2023-02-08T03:37:01.913Z,26.17
2023-02-08T03:37:31.938Z,26.14
2023-02-08T03:38:02.029Z,26.23
2023-02-08T03:38:32.138Z,26.18
2023-02-08T03:39:02.143Z,26.15
2023-02-08T03:39:32.132Z,26.17
2023-02-08T03:40:02.246Z,26.17
2023-02-08T03:40:32.248Z,26.14
2023-02-08T03:41:02.362Z,26.17
2023-02-08T03:41:32.480Z,26.18
2023-02-08T03:42:02.593Z,26.23
2023-02-08T03:42:32.593Z,26.18
2023-02-08T03:43:02.726Z,26.18
2023-02-08T03:43:32.707Z,26.17
2023-02-08T03:44:02.834Z,26.11
2023-02-08T03:44:32.815Z,26.14
2023-02-08T03:45:02.947Z,26.08
2023-02-08T03:45:32.932Z,26.09
2023-02-08T03:46:03.025Z,26.09
2023-02-08T03:46:33.044Z,26.11
2023-02-08T03:47:03.162Z,26.11
2023-02-08T03:47:33.276Z,26.15
2023-02-08T03:48:03.278Z,26.17
2023-02-08T03:48:33.266Z,26.11
2023-02-08T03:49:03.396Z,26.11
2023-02-08T03:49:33.390Z,26.18
2023-02-08T03:50:03.509Z,26.17
2023-02-08T03:50:33.634Z,26.21
2023-02-08T03:51:03.741Z,26.30
2023-02-08T03:51:33.735Z,26.32
2023-02-08T03:52:03.856Z,26.34
2023-02-08T03:52:33.870Z,26.32
2023-02-08T03:53:04.004Z,26.33
2023-02-08T03:53:33.983Z,26.36
2023-02-08T03:54:04.099Z,26.36
2023-02-08T03:54:34.090Z,26.35
2023-02-08T03:55:04.231Z,26.30
2023-02-08T03:55:34.334Z,26.35
2023-02-08T03:56:04.453Z,26.33
2023-02-08T03:56:34.449Z,26.27
2023-02-08T03:57:04.567Z,26.33
2023-02-08T03:57:34.682Z,26.30
2023-02-08T03:58:04.811Z,26.29
2023-02-08T03:58:34.801Z,26.31
2023-02-08T03:59:04.800Z,26.33
2023-02-08T03:59:34.794Z,26.33
2023-02-08T04:00:04.790Z,26.31
2023-02-08T04:00:34.786Z,26.30
2023-02-08T04:01:04.958Z,26.28
2023-02-08T04:01:34.969Z,26.36
2023-02-08T04:02:04.940Z,26.44
2023-02-08T04:02:34.958Z,26.38
2023-02-08T04:03:04.933Z,26.41
2023-02-08T04:03:35.057Z,26.44
2023-02-08T04:04:05.165Z,26.40
2023-02-08T04:04:35.287Z,26.37
2023-02-08T04:05:05.280Z,26.29
2023-02-08T04:05:35.368Z,26.32
2023-02-08T04:06:05.445Z,26.25
2023-02-08T04:06:35.524Z,26.25
2023-02-08T04:07:05.609Z,26.22
2023-02-08T04:07:35.684Z,26.21
2023-02-08T04:08:05.792Z,26.17
2023-02-08T04:08:35.882Z,26.17
2023-02-08T04:09:05.950Z,26.17
2023-02-08T04:09:38.691Z,26.14
2023-02-08T04:10:06.100Z,26.11
2023-02-08T04:10:36.181Z,26.03
2023-02-08T04:11:06.256Z,26.07
2023-02-08T04:11:36.332Z,26.01
2023-02-08T04:12:06.425Z,25.98
2023-02-08T04:12:36.489Z,26.04
2023-02-08T04:13:06.569Z,25.87
2023-02-08T04:13:36.649Z,25.92
2023-02-08T04:14:06.725Z,25.91
2023-02-08T04:14:36.806Z,25.85
2023-02-08T04:15:06.895Z,25.83
2023-02-08T04:15:37.028Z,25.87
2023-02-08T04:16:07.143Z,25.77
2023-02-08T04:16:37.132Z,25.87
2023-02-08T04:17:07.127Z,25.82
2023-02-08T04:17:37.243Z,25.73
2023-02-08T04:18:07.355Z,25.73
2023-02-08T04:18:37.368Z,25.68
2023-02-08T04:19:07.348Z,25.72
2023-02-08T04:19:37.472Z,25.68
2023-02-08T04:20:07.463Z,25.66
2023-02-08T04:20:37.743Z,25.62
2023-02-08T04:21:07.684Z,25.60
2023-02-08T04:21:37.799Z,25.60
2023-02-08T04:22:07.915Z,25.68
2023-02-08T04:22:38.040Z,25.58
2023-02-08T04:23:08.175Z,25.53
2023-02-08T04:23:38.144Z,25.53
2023-02-08T04:24:08.136Z,25.47
2023-02-08T04:24:38.258Z,25.50
2023-02-08T04:25:08.250Z,25.47
2023-02-08T04:25:38.384Z,25.46
2023-02-08T04:26:08.369Z,25.44
2023-02-08T04:26:38.365Z,25.45
2023-02-08T04:27:08.357Z,25.41
2023-02-08T04:27:38.479Z,25.33
2023-02-08T04:28:08.663Z,25.40
2023-02-08T04:28:38.658Z,25.38
2023-02-08T04:29:08.776Z,25.38
2023-02-08T04:29:38.899Z,25.35
2023-02-08T04:30:08.896Z,25.27
2023-02-08T04:30:39.350Z,25.37
2023-02-08T04:31:09.039Z,25.37
2023-02-08T04:31:39.162Z,25.34
2023-02-08T04:32:09.083Z,25.26
2023-02-08T04:32:39.201Z,25.18
2023-02-08T04:33:09.197Z,25.22
2023-02-08T04:33:39.198Z,25.26
2023-02-08T04:34:09.190Z,25.17
2023-02-08T04:34:39.307Z,25.22
2023-02-08T04:35:09.313Z,25.18
2023-02-08T04:35:39.298Z,25.26
2023-02-08T04:36:09.411Z,25.21
2023-02-08T04:36:39.409Z,25.25
2023-02-08T04:37:09.407Z,25.17
2023-02-08T04:37:39.524Z,25.22
2023-02-08T04:38:09.519Z,25.20
2023-02-08T04:38:39.669Z,25.19
2023-02-08T04:39:09.637Z,25.15
2023-02-08T04:39:39.757Z,25.09
2023-02-08T04:40:09.755Z,25.24
2023-02-08T04:40:40.122Z,25.17
2023-02-08T04:41:09.767Z,25.22
2023-02-08T04:41:39.766Z,25.11
2023-02-08T04:42:09.765Z,25.22
2023-02-08T04:42:39.754Z,25.20
2023-02-08T04:43:09.750Z,25.22
2023-02-08T04:43:39.867Z,25.19
2023-02-08T04:44:09.985Z,25.19
2023-02-08T04:44:40.107Z,25.27
2023-02-08T04:45:10.103Z,25.17
2023-02-08T04:45:40.230Z,25.23
2023-02-08T04:46:10.355Z,25.24
2023-02-08T04:46:40.431Z,25.27
2023-02-08T04:47:10.454Z,25.27
2023-02-08T04:47:40.576Z,25.31
2023-02-08T04:48:11.987Z,25.22
2023-02-08T04:48:40.681Z,25.20
2023-02-08T04:49:10.809Z,25.25
2023-02-08T04:49:40.918Z,25.22
2023-02-08T04:50:11.036Z,25.24
2023-02-08T04:50:41.374Z,25.15
2023-02-08T04:51:11.130Z,25.18
2023-02-08T04:51:41.244Z,25.14
2023-02-08T04:52:11.235Z,25.16
2023-02-08T04:52:41.232Z,25.15
2023-02-08T04:53:11.364Z,25.05
2023-02-08T04:53:41.462Z,25.11
2023-02-08T04:54:11.495Z,25.07
2023-02-08T04:54:41.474Z,25.09
2023-02-08T04:55:11.467Z,25.05
2023-02-08T04:55:41.593Z,25.04
2023-02-08T04:56:11.582Z,24.96
2023-02-08T04:56:41.706Z,24.95
2023-02-08T04:57:11.701Z,25.02
2023-02-08T04:57:41.701Z,24.95
2023-02-08T04:58:11.732Z,25.01
2023-02-08T04:58:41.858Z,25.01
2023-02-08T04:59:11.855Z,24.99
2023-02-08T04:59:41.980Z,25.02
2023-02-08T05:00:11.981Z,25.05
2023-02-08T05:00:42.447Z,25.01
2023-02-08T05:01:12.082Z,24.98
2023-02-08T05:01:42.245Z,25.04
2023-02-08T05:02:12.251Z,25.01
2023-02-08T05:02:42.248Z,25.01
2023-02-08T05:03:12.371Z,25.05
2023-02-08T05:03:42.483Z,25.05
2023-02-08T05:04:12.490Z,25.01
2023-02-08T05:04:42.516Z,25.01
2023-02-08T05:05:12.531Z,25.07
2023-02-08T05:05:42.615Z,25.07
2023-02-08T05:06:12.687Z,25.09
2023-02-08T05:06:42.778Z,25.14
2023-02-08T05:07:12.862Z,25.04
2023-02-08T05:07:42.937Z,25.09
2023-02-08T05:08:13.009Z,25.12
2023-02-08T05:08:43.101Z,25.12
2023-02-08T05:09:13.167Z,25.09
2023-02-08T05:09:43.280Z,25.11
2023-02-08T05:10:13.337Z,25.13
2023-02-08T05:10:43.411Z,25.14
2023-02-08T05:11:13.492Z,25.16
2023-02-08T05:11:43.579Z,25.13
2023-02-08T05:12:13.655Z,25.14
2023-02-08T05:12:46.102Z,25.16
2023-02-08T05:13:13.744Z,25.17
2023-02-08T05:13:43.832Z,25.19
2023-02-08T05:14:13.934Z,25.19
2023-02-08T05:14:44.021Z,25.19
2023-02-08T05:15:14.108Z,25.21
2023-02-08T05:15:44.272Z,25.16
2023-02-08T05:16:14.315Z,25.18
2023-02-08T05:16:44.284Z,25.15
2023-02-08T05:17:14.275Z,25.09
2023-02-08T05:17:44.392Z,25.02
2023-02-08T05:18:14.385Z,24.96
2023-02-08T05:18:44.524Z,24.89
2023-02-08T05:19:14.625Z,24.87
2023-02-08T05:19:44.742Z,24.93
2023-02-08T05:20:14.737Z,24.85
2023-02-08T05:20:44.855Z,24.84
2023-02-08T05:21:14.970Z,24.90
2023-02-08T05:21:45.089Z,24.91
2023-02-08T05:22:15.110Z,24.93
2023-02-08T05:22:45.225Z,24.93
2023-02-08T05:23:15.338Z,24.87
2023-02-08T05:23:46.820Z,24.87
2023-02-08T05:24:15.552Z,24.87
2023-02-08T05:24:45.546Z,24.79
2023-02-08T05:25:15.521Z,24.84
2023-02-08T05:25:45.516Z,24.90
2023-02-08T05:26:15.633Z,24.84
2023-02-08T05:26:45.748Z,24.86
2023-02-08T05:27:15.746Z,24.80
2023-02-08T05:27:45.866Z,24.86
2023-02-08T05:28:16.039Z,24.87
2023-02-08T05:28:46.026Z,24.87
2023-02-08T05:29:16.148Z,24.87
2023-02-08T05:29:46.145Z,24.82
2023-02-08T05:30:16.144Z,24.87
2023-02-08T05:30:46.176Z,24.86
2023-02-08T05:31:16.357Z,24.84
2023-02-08T05:31:46.344Z,24.83
2023-02-08T05:32:16.250Z,24.76
2023-02-08T05:32:46.369Z,24.82
2023-02-08T05:33:16.374Z,24.76
2023-02-08T05:33:46.431Z,24.76
2023-02-08T05:34:16.559Z,24.74
2023-02-08T05:34:46.666Z,24.71
2023-02-08T05:35:16.665Z,24.68
2023-02-08T05:35:46.663Z,24.70
2023-02-08T05:36:16.654Z,24.73
2023-02-08T05:36:46.657Z,24.73
2023-02-08T05:37:16.645Z,24.67
2023-02-08T05:37:46.761Z,24.62
2023-02-08T05:38:16.754Z,24.57
2023-02-08T05:38:46.880Z,24.59
2023-02-08T05:39:17.007Z,24.58
2023-02-08T05:39:46.994Z,24.59
2023-02-08T05:40:17.011Z,24.68
2023-02-08T05:40:47.004Z,24.64
2023-02-08T05:41:17.115Z,24.59
2023-02-08T05:41:47.233Z,24.64
2023-02-08T05:42:17.354Z,24.63
2023-02-08T05:42:47.468Z,24.64
2023-02-08T05:43:17.458Z,24.66
2023-02-08T05:43:47.451Z,24.63
2023-02-08T05:44:17.572Z,24.63
2023-02-08T05:44:47.572Z,24.63
2023-02-08T05:45:17.701Z,24.63
2023-02-08T05:45:47.689Z,24.61
2023-02-08T05:46:17.737Z,24.52
2023-02-08T05:46:47.822Z,24.57
2023-02-08T05:47:17.814Z,24.58
2023-02-08T05:47:47.797Z,24.55
2023-02-08T05:48:17.915Z,24.66
2023-02-08T05:48:48.035Z,24.67
2023-02-08T05:49:18.037Z,24.60
2023-02-08T05:49:48.073Z,24.60
2023-02-08T05:50:18.091Z,24.69
2023-02-08T05:50:48.082Z,24.67
2023-02-08T05:51:18.089Z,24.70
2023-02-08T05:51:48.092Z,24.72
2023-02-08T05:52:18.084Z,24.67
2023-02-08T05:52:48.080Z,24.70
2023-02-08T05:53:18.208Z,24.72
2023-02-08T05:53:48.203Z,24.71
2023-02-08T05:54:18.326Z,24.76
2023-02-08T05:54:48.318Z,24.78
2023-02-08T05:55:18.320Z,24.81
2023-02-08T05:55:48.351Z,24.81
2023-02-08T05:56:18.427Z,24.81
2023-02-08T05:56:48.557Z,24.76
2023-02-08T05:57:18.662Z,24.69
2023-02-08T05:57:48.778Z,24.76
2023-02-08T05:58:18.772Z,24.81
2023-02-08T05:58:48.769Z,24.85
2023-02-08T05:59:18.764Z,24.72
2023-02-08T05:59:48.880Z,24.81
2023-02-08T06:00:18.900Z,24.81
2023-02-08T06:00:48.893Z,24.84
2023-02-08T06:01:18.885Z,24.84
2023-02-08T06:01:48.883Z,24.84
2023-02-08T06:02:18.997Z,24.87
2023-02-08T06:02:49.153Z,24.91
2023-02-08T06:03:19.107Z,24.88
2023-02-08T06:03:49.135Z,24.87
2023-02-08T06:04:19.165Z,24.85
2023-02-08T06:04:49.186Z,24.88
2023-02-08T06:05:19.305Z,24.87
2023-02-08T06:05:49.394Z,24.85
2023-02-08T06:06:19.466Z,24.84
2023-02-08T06:06:49.544Z,24.81
2023-02-08T06:07:19.623Z,24.87
2023-02-08T06:07:49.704Z,24.84
2023-02-08T06:08:19.787Z,24.81
2023-02-08T06:08:49.864Z,24.81
2023-02-08T06:09:19.960Z,24.79
2023-02-08T06:09:50.051Z,24.75
2023-02-08T06:10:20.127Z,24.76
2023-02-08T06:10:50.241Z,24.78
2023-02-08T06:11:20.287Z,24.82
2023-02-08T06:11:50.372Z,24.79
2023-02-08T06:12:20.452Z,24.73
2023-02-08T06:12:50.550Z,24.74
2023-02-08T06:13:20.624Z,24.74
2023-02-08T06:13:50.708Z,24.77
2023-02-08T06:14:20.798Z,24.73
2023-02-08T06:14:50.882Z,24.74
2023-02-08T06:15:20.977Z,24.77
2023-02-08T06:15:51.104Z,24.80
2023-02-08T06:16:21.154Z,24.74
2023-02-08T06:16:51.201Z,24.80
2023-02-08T06:17:21.175Z,24.80
2023-02-08T06:17:51.295Z,24.77
2023-02-08T06:18:21.410Z,24.80
2023-02-08T06:18:51.407Z,24.77
2023-02-08T06:19:21.409Z,24.76
2023-02-08T06:19:51.543Z,24.79
2023-02-08T06:20:21.517Z,24.74
2023-02-08T06:20:51.515Z,24.68
2023-02-08T06:21:24.147Z,24.67
2023-02-08T06:21:51.694Z,24.71
2023-02-08T06:22:21.689Z,24.65
2023-02-08T06:22:51.804Z,24.67
2023-02-08T06:23:21.917Z,24.61
2023-02-08T06:23:51.910Z,24.62
2023-02-08T06:24:22.036Z,24.59
2023-02-08T06:24:52.020Z,24.61
2023-02-08T06:25:22.019Z,24.54
2023-02-08T06:25:52.135Z,24.53
2023-02-08T06:26:22.273Z,24.53
2023-02-08T06:26:52.246Z,24.51
2023-02-08T06:27:22.364Z,24.55
2023-02-08T06:27:52.565Z,24.55